createdAt,value
2023-05-10T00:00:50.146Z,32.05
2023-05-10T00:01:50.163Z,32.12
2023-05-10T00:02:50.371Z,32.08
2023-05-10T00:03:50.390Z,32.08
2023-05-10T00:04:50.428Z,32.12
2023-05-10T00:05:50.488Z,32.10
2023-05-10T00:06:50.443Z,32.17
2023-05-10T00:07:50.521Z,32.08
2023-05-10T00:08:50.540Z,32.16
2023-05-10T00:09:50.674Z,32.08
2023-05-10T00:10:50.670Z,32.15
2023-05-10T00:11:50.734Z,32.15
2023-05-10T00:12:50.844Z,32.22
2023-05-10T00:13:50.886Z,32.14
2023-05-10T00:14:50.888Z,32.20
2023-05-10T00:15:51.015Z,32.18
2023-05-10T00:16:51.101Z,32.27
2023-05-10T00:17:51.134Z,32.25
2023-05-10T00:18:51.183Z,32.15
2023-05-10T00:19:51.202Z,32.24
2023-05-10T00:20:51.304Z,32.20
2023-05-10T00:21:51.332Z,32.22
2023-05-10T00:22:51.371Z,32.25
2023-05-10T00:23:51.432Z,32.22
2023-05-10T00:24:51.498Z,32.25
2023-05-10T00:25:51.557Z,32.22
2023-05-10T00:26:51.622Z,32.30
2023-05-10T00:27:51.662Z,32.26
2023-05-10T00:28:51.698Z,32.26
2023-05-10T00:29:51.767Z,32.29
2023-05-10T00:30:51.815Z,32.27
2023-05-10T00:31:52.095Z,32.30
2023-05-10T00:32:52.002Z,32.30
2023-05-10T00:33:52.004Z,32.36
2023-05-10T00:34:52.037Z,32.36
2023-05-10T00:35:52.109Z,32.43
2023-05-10T00:36:52.221Z,32.36
2023-05-10T00:37:52.200Z,32.39
2023-05-10T00:38:52.302Z,32.37
2023-05-10T00:39:52.348Z,32.37
2023-05-10T00:40:52.424Z,32.43
2023-05-10T00:41:52.487Z,32.41
2023-05-10T00:42:52.514Z,32.33
2023-05-10T00:43:53.026Z,32.40
2023-05-10T00:44:52.702Z,32.39
2023-05-10T00:45:52.787Z,32.40
2023-05-10T00:46:52.750Z,32.44
2023-05-10T00:47:52.835Z,32.42
2023-05-10T00:48:52.886Z,32.42
2023-05-10T00:49:52.964Z,32.40
2023-05-10T00:50:53.030Z,32.44
2023-05-10T00:51:53.088Z,32.40
2023-05-10T00:52:53.127Z,32.47
2023-05-10T00:53:53.215Z,32.49
2023-05-10T00:54:53.270Z,32.46
2023-05-10T00:55:53.354Z,32.48
2023-05-10T00:56:53.429Z,32.44
2023-05-10T00:57:53.418Z,32.53
2023-05-10T00:58:53.497Z,32.53
2023-05-10T00:59:53.595Z,32.49
2023-05-10T01:00:53.610Z,32.54
2023-05-10T01:01:53.675Z,32.59
2023-05-10T01:02:53.837Z,32.63
2023-05-10T01:03:53.821Z,32.51
2023-05-10T01:04:53.915Z,32.59
2023-05-10T01:05:53.933Z,32.49
2023-05-10T01:06:53.992Z,32.53
2023-05-10T01:07:54.112Z,32.56
2023-05-10T01:08:54.213Z,32.53
2023-05-10T01:09:54.165Z,32.62
2023-05-10T01:10:54.304Z,32.60
2023-05-10T01:11:54.312Z,32.61
2023-05-10T01:12:54.346Z,32.56
2023-05-10T01:13:54.421Z,32.64
2023-05-10T01:29:26.947Z,32.86
2023-05-10T01:30:26.968Z,32.95
2023-05-10T01:31:26.651Z,32.93
2023-05-10T01:32:26.662Z,32.90
2023-05-10T01:33:26.979Z,32.89
2023-05-10T01:34:26.613Z,32.92
2023-05-10T01:35:26.580Z,32.85
2023-05-10T01:36:26.573Z,32.90
2023-05-10T01:37:26.577Z,32.88
2023-05-10T01:38:26.594Z,32.89
2023-05-10T01:39:26.570Z,32.83
2023-05-10T01:40:26.523Z,32.89
2023-05-10T01:41:26.516Z,32.86
2023-05-10T01:42:26.556Z,32.82
2023-05-10T01:43:26.602Z,32.85
2023-05-10T01:44:26.517Z,32.89
2023-05-10T01:45:26.494Z,32.91
2023-05-10T01:46:26.564Z,32.92
2023-05-10T01:47:26.518Z,32.88
2023-05-10T01:48:26.570Z,32.92
2023-05-10T01:49:26.505Z,32.85
2023-05-10T01:50:26.494Z,32.85
2023-05-10T01:51:26.468Z,32.88
2023-05-10T01:52:26.477Z,32.86
2023-05-10T01:53:26.494Z,32.92
2023-05-10T01:54:26.462Z,32.82
2023-05-10T01:55:26.438Z,32.88
2023-05-10T01:56:26.434Z,32.89
2023-05-10T01:57:26.430Z,32.88
2023-05-10T01:58:26.444Z,32.94
2023-05-10T01:59:26.515Z,32.88
2023-05-10T02:00:26.557Z,32.91
2023-05-10T02:01:26.616Z,32.85
2023-05-10T02:02:26.726Z,32.88
2023-05-10T02:03:26.779Z,32.89
2023-05-10T02:04:26.809Z,32.88
2023-05-10T02:05:26.859Z,32.91
2023-05-10T02:06:26.905Z,32.87
2023-05-10T02:07:27.013Z,32.91
2023-05-10T02:08:27.048Z,32.91
2023-05-10T02:09:27.127Z,32.95
2023-05-10T02:10:27.180Z,32.91
2023-05-10T02:11:27.253Z,32.91
2023-05-10T02:12:27.311Z,32.89
2023-05-10T02:13:27.393Z,32.88
2023-05-10T02:14:27.432Z,32.91
2023-05-10T02:15:27.485Z,32.97
2023-05-10T02:16:27.607Z,32.87
2023-05-10T02:17:27.623Z,32.91
2023-05-10T02:18:27.673Z,32.90
2023-05-10T02:19:27.737Z,32.91
2023-05-10T02:20:27.847Z,32.86
2023-05-10T02:21:27.836Z,32.93
2023-05-10T02:22:27.924Z,32.89
2023-05-10T02:23:27.980Z,32.94
2023-05-10T02:24:28.051Z,32.89
2023-05-10T02:25:28.118Z,32.95
2023-05-10T02:26:28.208Z,32.92
2023-05-10T02:27:28.219Z,33.00
2023-05-10T02:28:28.296Z,33.00
2023-05-10T02:29:28.359Z,32.91
2023-05-10T02:30:28.406Z,32.95
2023-05-10T02:31:28.498Z,32.95
2023-05-10T02:32:28.580Z,33.00
2023-05-10T02:33:28.631Z,32.95
2023-05-10T02:34:28.697Z,33.00
2023-05-10T02:35:28.733Z,32.91
2023-05-10T02:36:28.785Z,32.95
2023-05-10T02:37:28.849Z,33.01
2023-05-10T02:38:28.927Z,32.98
2023-05-10T02:39:29.003Z,33.01
2023-05-10T02:40:29.074Z,33.00
2023-05-10T02:41:29.118Z,32.98
2023-05-10T02:42:29.213Z,33.02
2023-05-10T02:43:29.247Z,33.05
2023-05-10T02:44:29.296Z,33.08
2023-05-10T02:45:29.343Z,33.02
2023-05-10T02:46:29.479Z,33.05
2023-05-10T02:47:29.490Z,33.02
2023-05-10T02:48:29.574Z,33.11
2023-05-10T02:49:29.613Z,33.05
2023-05-10T02:50:29.658Z,33.06
2023-05-10T02:51:29.754Z,33.04
2023-05-10T02:52:29.779Z,33.06
2023-05-10T02:53:29.844Z,33.02
2023-05-10T02:54:29.920Z,33.06
2023-05-10T02:55:29.979Z,33.11
2023-05-10T02:56:30.028Z,33.01
2023-05-10T02:57:30.134Z,33.09
2023-05-10T02:58:30.239Z,33.12
2023-05-10T02:59:30.240Z,33.07
2023-05-10T03:00:30.276Z,33.08
2023-05-10T03:01:30.354Z,33.07
2023-05-10T03:02:30.439Z,33.15
2023-05-10T03:03:30.477Z,33.09
2023-05-10T03:04:30.519Z,33.11
2023-05-10T03:05:30.582Z,33.11
2023-05-10T03:06:30.676Z,33.06
2023-05-10T03:07:30.718Z,33.11
2023-05-10T03:08:30.821Z,33.11
2023-05-10T03:09:30.888Z,33.12
2023-05-10T03:10:30.955Z,33.15
2023-05-10T03:11:30.952Z,33.18
2023-05-10T03:12:31.064Z,33.15
2023-05-10T03:13:31.156Z,33.13
2023-05-10T03:14:31.216Z,33.11
2023-05-10T03:15:31.206Z,33.19
2023-05-10T03:16:31.342Z,33.19
2023-05-10T03:17:31.386Z,33.16
2023-05-10T03:18:31.399Z,33.08
2023-05-10T03:19:31.488Z,33.15
2023-05-10T03:20:31.513Z,33.13
2023-05-10T03:21:31.586Z,33.13
2023-05-10T03:22:31.657Z,33.13
2023-05-10T03:23:31.764Z,33.13
2023-05-10T03:24:31.760Z,33.13
2023-05-10T03:25:31.848Z,33.13
2023-05-10T03:26:31.933Z,33.19
2023-05-10T03:27:31.958Z,33.09
2023-05-10T03:28:32.010Z,33.16
2023-05-10T03:29:32.092Z,33.21
2023-05-10T03:30:32.157Z,33.16
2023-05-10T03:31:32.286Z,33.22
2023-05-10T03:32:32.288Z,33.18
2023-05-10T03:33:32.375Z,33.19
2023-05-10T03:34:32.431Z,33.28
2023-05-10T03:35:32.474Z,33.18
2023-05-10T03:36:32.570Z,33.15
2023-05-10T03:37:32.624Z,33.18
2023-05-10T03:38:32.653Z,33.21
2023-05-10T03:39:32.711Z,33.23
2023-05-10T03:40:32.783Z,33.19
2023-05-10T03:41:32.866Z,33.28
2023-05-10T03:42:32.893Z,33.22
2023-05-10T03:43:32.965Z,33.20
2023-05-10T03:44:33.507Z,33.24
2023-05-10T03:45:33.097Z,33.26
2023-05-10T03:46:33.166Z,33.26
2023-05-10T03:47:33.241Z,33.23
2023-05-10T03:48:33.275Z,33.25
2023-05-10T03:49:33.328Z,33.33
2023-05-10T03:50:33.366Z,33.25
2023-05-10T03:51:33.428Z,33.26
2023-05-10T03:52:33.518Z,33.26
2023-05-10T03:53:33.556Z,33.30
2023-05-10T03:54:33.614Z,33.26
2023-05-10T03:55:33.697Z,33.30
2023-05-10T03:56:33.748Z,33.26
2023-05-10T03:57:33.800Z,33.30
2023-05-10T03:58:33.870Z,33.33
2023-05-10T03:59:33.915Z,33.33
2023-05-10T04:00:34.003Z,33.33
2023-05-10T04:01:34.098Z,33.33
2023-05-10T04:02:34.255Z,33.31
2023-05-10T04:03:34.285Z,33.32
2023-05-10T04:04:34.213Z,33.29
2023-05-10T04:05:34.256Z,33.22
2023-05-10T04:06:34.396Z,33.33
2023-05-10T04:07:34.361Z,33.32
2023-05-10T04:08:34.408Z,33.32
2023-05-10T04:09:34.472Z,33.38
2023-05-10T04:10:34.523Z,33.32
2023-05-10T04:11:34.590Z,33.33
2023-05-10T04:12:34.666Z,33.35
2023-05-10T04:13:34.692Z,33.35
2023-05-10T04:14:35.026Z,33.30
2023-05-10T04:15:34.809Z,33.29
2023-05-10T04:16:34.920Z,33.30
2023-05-10T04:17:34.965Z,33.33
2023-05-10T04:18:35.022Z,33.33
2023-05-10T04:19:35.057Z,33.33
2023-05-10T04:20:35.116Z,33.29
2023-05-10T04:21:35.188Z,33.30
2023-05-10T04:22:35.257Z,33.33
2023-05-10T04:23:35.292Z,33.38
2023-05-10T04:24:35.373Z,33.39
2023-05-10T04:25:35.420Z,33.32
2023-05-10T04:26:35.488Z,33.33
2023-05-10T04:27:35.556Z,33.29
2023-05-10T04:28:35.594Z,33.32
2023-05-10T04:29:35.715Z,33.35
2023-05-10T04:30:35.718Z,33.36
2023-05-10T04:31:35.744Z,33.36
2023-05-10T04:32:35.838Z,33.30
2023-05-10T04:33:35.842Z,33.32
2023-05-10T04:34:35.895Z,33.32
2023-05-10T04:35:35.967Z,33.33
2023-05-10T04:36:36.010Z,33.32
2023-05-10T04:37:36.058Z,33.32
2023-05-10T04:38:36.147Z,33.32
2023-05-10T04:39:36.211Z,33.36
2023-05-10T04:40:36.220Z,33.35
2023-05-10T04:41:36.273Z,33.30
2023-05-10T04:42:36.305Z,33.29
2023-05-10T04:43:36.414Z,33.33
2023-05-10T04:44:36.466Z,33.34
2023-05-10T04:45:36.528Z,33.24
2023-05-10T04:46:36.590Z,33.30
2023-05-10T04:47:36.669Z,33.27
2023-05-10T04:48:36.635Z,33.29
2023-05-10T04:49:36.729Z,33.32
2023-05-10T04:50:36.774Z,33.26
2023-05-10T04:51:36.827Z,33.27
2023-05-10T04:52:36.862Z,33.29
2023-05-10T04:53:36.948Z,33.30
2023-05-10T04:54:37.000Z,33.23
2023-05-10T04:55:37.040Z,33.29
2023-05-10T04:56:37.079Z,33.27
2023-05-10T04:57:37.142Z,33.27
2023-05-10T04:58:37.203Z,33.29
2023-05-10T04:59:37.300Z,33.27
2023-05-10T05:00:37.310Z,33.25
2023-05-10T05:01:37.400Z,33.23
2023-05-10T05:02:37.508Z,33.23
2023-05-10T05:03:37.676Z,33.18
2023-05-10T05:04:37.493Z,33.26
2023-05-10T05:05:37.490Z,33.26
2023-05-10T05:06:37.555Z,33.23
2023-05-10T05:07:37.562Z,33.18
2023-05-10T05:08:37.641Z,33.24
2023-05-10T05:09:37.684Z,33.24
2023-05-10T05:10:37.699Z,33.26
2023-05-10T05:11:37.740Z,33.23
2023-05-10T05:12:37.783Z,33.30
2023-05-10T05:13:37.787Z,33.23
2023-05-10T05:14:37.861Z,33.20
2023-05-10T05:15:37.907Z,33.23
2023-05-10T05:16:37.969Z,33.20
2023-05-10T05:17:37.993Z,33.22
2023-05-10T05:18:37.986Z,33.21
2023-05-10T05:19:38.082Z,33.24
2023-05-10T05:20:38.067Z,33.16
2023-05-10T05:21:38.166Z,33.21
2023-05-10T05:22:38.165Z,33.18
2023-05-10T05:23:38.219Z,33.20
2023-05-10T05:24:38.305Z,33.23
2023-05-10T05:25:38.340Z,33.20
2023-05-10T05:26:38.383Z,33.24
2023-05-10T05:27:38.444Z,33.22
2023-05-10T05:28:38.496Z,33.22
2023-05-10T05:29:38.557Z,33.20
2023-05-10T05:30:38.597Z,33.22
2023-05-10T05:31:38.655Z,33.24
2023-05-10T05:32:38.713Z,33.20
2023-05-10T05:33:38.710Z,33.20
2023-05-10T05:34:38.696Z,33.20
2023-05-10T05:35:38.729Z,33.55
2023-05-10T05:36:38.822Z,33.67
2023-05-10T05:37:38.862Z,34.19
2023-05-10T05:38:38.873Z,34.33
2023-05-10T05:39:39.038Z,34.95
2023-05-10T05:40:39.011Z,35.14
2023-05-10T05:41:39.070Z,36.67
2023-05-10T05:42:39.124Z,37.44
2023-05-10T05:43:39.354Z,36.95
2023-05-10T05:44:39.345Z,38.37
2023-05-10T05:45:39.465Z,38.68
2023-05-10T05:46:39.378Z,38.39
2023-05-10T05:47:39.540Z,38.44
2023-05-10T05:48:39.451Z,38.77
2023-05-10T05:49:39.539Z,38.52
2023-05-10T05:50:39.569Z,38.54
2023-05-10T05:51:39.608Z,39.07
2023-05-10T05:52:39.654Z,38.91
2023-05-10T05:53:39.759Z,39.03
2023-05-10T05:54:40.142Z,39.69
2023-05-10T05:55:39.800Z,39.14
2023-05-10T05:56:39.830Z,39.54
2023-05-10T05:57:39.889Z,39.45
2023-05-10T05:58:39.959Z,40.13
2023-05-10T05:59:39.991Z,40.06
2023-05-10T06:00:40.113Z,39.79
2023-05-10T06:01:40.199Z,39.90
2023-05-10T06:02:40.307Z,40.17
2023-05-10T06:03:40.427Z,40.08
2023-05-10T06:04:41.562Z,40.56
2023-05-10T06:05:40.439Z,39.96
2023-05-10T06:06:40.510Z,40.19
2023-05-10T06:07:40.571Z,40.34
2023-05-10T06:08:40.595Z,40.24
2023-05-10T06:09:40.662Z,40.29
2023-05-10T06:10:40.689Z,40.17
2023-05-10T06:11:40.753Z,40.25
2023-05-10T06:12:40.765Z,40.31
2023-05-10T06:13:41.008Z,39.99
2023-05-10T06:14:40.872Z,39.88
2023-05-10T06:15:40.902Z,40.15
2023-05-10T06:16:40.972Z,39.86
2023-05-10T06:17:40.993Z,39.51
2023-05-10T06:18:40.979Z,39.55
2023-05-10T06:19:41.028Z,39.49
2023-05-10T06:20:41.050Z,39.38
2023-05-10T06:21:41.112Z,39.36
2023-05-10T06:22:41.118Z,39.28
2023-05-10T06:23:41.210Z,39.28
2023-05-10T06:24:41.259Z,39.49
2023-05-10T06:25:41.269Z,39.25
2023-05-10T06:26:41.297Z,39.35
2023-05-10T06:27:42.076Z,39.30
2023-05-10T06:28:41.336Z,39.25
2023-05-10T06:29:41.602Z,39.35
2023-05-10T06:30:41.490Z,39.31
2023-05-10T06:31:41.563Z,39.39
2023-05-10T06:32:41.497Z,39.32
2023-05-10T06:33:41.594Z,39.26
2023-05-10T06:34:41.559Z,39.33
2023-05-10T06:35:41.573Z,39.47
2023-05-10T06:36:41.627Z,39.45
2023-05-10T06:37:42.716Z,39.31
2023-05-10T06:38:41.740Z,39.43
2023-05-10T06:39:42.178Z,39.19
2023-05-10T06:40:41.712Z,38.94
2023-05-10T06:41:41.729Z,38.70
2023-05-10T06:42:41.791Z,38.02
2023-05-10T06:43:41.806Z,37.59
2023-05-10T06:44:42.101Z,37.80
2023-05-10T06:45:41.834Z,37.64
2023-05-10T06:46:41.969Z,37.84
2023-05-10T06:47:41.879Z,37.22
2023-05-10T06:48:41.890Z,37.18
2023-05-10T06:49:41.992Z,37.35
2023-05-10T06:50:41.959Z,37.40
2023-05-10T06:51:42.020Z,37.15
2023-05-10T06:52:42.094Z,37.16
2023-05-10T06:53:42.111Z,37.17
2023-05-10T06:54:42.133Z,36.99
2023-05-10T06:55:42.151Z,37.08
2023-05-10T06:56:42.214Z,36.97
2023-05-10T06:57:42.251Z,37.06
2023-05-10T06:58:42.514Z,36.92
2023-05-10T06:59:42.334Z,37.29
2023-05-10T07:00:42.396Z,37.28
2023-05-10T07:01:42.486Z,37.28
2023-05-10T07:02:42.555Z,37.16
2023-05-10T07:03:42.504Z,37.22
2023-05-10T07:04:42.572Z,37.14
2023-05-10T07:05:42.632Z,37.21
2023-05-10T07:06:42.586Z,37.31
2023-05-10T07:07:42.716Z,37.38
2023-05-10T07:08:42.674Z,37.51
2023-05-10T07:09:42.727Z,37.73
2023-05-10T07:10:42.816Z,37.74
2023-05-10T07:11:42.823Z,37.81
2023-05-10T07:12:42.990Z,37.97
2023-05-10T07:13:42.928Z,37.72
2023-05-10T07:14:43.297Z,37.82
2023-05-10T07:15:42.955Z,38.06
2023-05-10T07:16:43.063Z,38.07
2023-05-10T07:17:45.503Z,38.21
2023-05-10T07:18:43.065Z,38.22
2023-05-10T07:19:43.029Z,38.30
2023-05-10T07:20:43.002Z,38.28
2023-05-10T07:21:43.006Z,38.21
2023-05-10T07:22:43.088Z,38.30
2023-05-10T07:23:44.914Z,38.45
2023-05-10T07:24:42.962Z,38.51
2023-05-10T07:25:42.965Z,38.29
2023-05-10T07:26:43.061Z,38.47
2023-05-10T07:27:42.954Z,38.50
2023-05-10T07:28:42.953Z,38.84
2023-05-10T07:29:42.963Z,38.54
2023-05-10T07:30:43.109Z,38.76
2023-05-10T07:31:43.181Z,38.25
2023-05-10T07:32:43.143Z,37.47
2023-05-10T07:33:43.118Z,37.24
2023-05-10T07:34:43.643Z,37.48
2023-05-10T07:35:43.192Z,37.61
2023-05-10T07:36:43.372Z,37.52
2023-05-10T07:37:43.251Z,37.94
2023-05-10T07:38:43.283Z,37.68
2023-05-10T07:39:43.369Z,37.96
2023-05-10T07:40:43.368Z,38.19
2023-05-10T07:41:43.401Z,38.49
2023-05-10T07:42:43.444Z,38.66
2023-05-10T07:43:43.481Z,38.86
2023-05-10T07:44:43.529Z,38.97
2023-05-10T07:45:43.624Z,39.13
2023-05-10T07:46:43.555Z,39.31
2023-05-10T07:47:43.660Z,39.36
2023-05-10T07:48:43.705Z,39.25
2023-05-10T07:49:44.106Z,39.54
2023-05-10T07:50:43.661Z,39.68
2023-05-10T07:51:43.772Z,39.82
2023-05-10T07:52:43.702Z,39.89
2023-05-10T07:53:43.746Z,39.84
2023-05-10T07:54:44.623Z,40.14
2023-05-10T07:55:43.751Z,39.96
2023-05-10T07:56:43.780Z,40.19
2023-05-10T07:57:43.838Z,40.33
2023-05-10T07:58:43.811Z,40.50
2023-05-10T07:59:43.880Z,40.61
2023-05-10T08:00:43.909Z,40.68
2023-05-10T08:01:43.907Z,40.75
2023-05-10T08:02:44.005Z,40.67
2023-05-10T08:03:43.934Z,41.07
2023-05-10T08:04:44.081Z,40.99
2023-05-10T08:05:43.888Z,41.06
2023-05-10T08:06:43.949Z,41.11
2023-05-10T08:07:43.937Z,41.03
2023-05-10T08:08:43.924Z,41.35
2023-05-10T08:09:43.953Z,41.43
2023-05-10T08:10:43.995Z,41.24
2023-05-10T08:11:43.936Z,41.43
2023-05-10T08:12:43.992Z,41.53
2023-05-10T08:13:44.023Z,40.72
2023-05-10T08:14:43.992Z,40.16
2023-05-10T08:15:44.056Z,39.79
2023-05-10T08:16:44.008Z,39.79
2023-05-10T08:17:44.088Z,39.35
2023-05-10T08:18:44.034Z,39.05
2023-05-10T08:19:44.107Z,38.69
2023-05-10T08:20:44.054Z,38.36
2023-05-10T08:21:44.085Z,38.63
2023-05-10T08:22:44.110Z,38.79
2023-05-10T08:23:44.115Z,39.00
2023-05-10T08:24:44.153Z,39.05
2023-05-10T08:25:44.185Z,38.57
2023-05-10T08:26:44.251Z,38.41
2023-05-10T08:27:44.280Z,38.40
2023-05-10T08:28:44.266Z,38.25
2023-05-10T08:29:50.132Z,38.25
2023-05-10T08:30:45.253Z,38.08
2023-05-10T08:31:44.299Z,38.08
2023-05-10T08:32:44.331Z,37.75
2023-05-10T08:33:44.798Z,37.94
2023-05-10T08:34:44.264Z,37.89
2023-05-10T08:35:44.235Z,37.81
2023-05-10T08:36:44.356Z,37.84
2023-05-10T08:37:44.321Z,37.85
2023-05-10T08:38:44.381Z,37.67
2023-05-10T08:39:44.407Z,37.52
2023-05-10T08:40:44.424Z,37.63
2023-05-10T08:41:44.484Z,38.04
2023-05-10T08:42:44.534Z,37.97
2023-05-10T08:43:44.667Z,37.75
2023-05-10T08:44:44.569Z,37.66
2023-05-10T08:45:45.202Z,37.39
2023-05-10T08:46:44.737Z,37.33
2023-05-10T08:47:44.784Z,37.18
2023-05-10T08:48:44.789Z,37.26
2023-05-10T08:49:44.865Z,37.33
2023-05-10T08:50:45.199Z,37.63
2023-05-10T08:51:45.008Z,37.45
2023-05-10T08:52:45.070Z,37.69
2023-05-10T08:53:45.110Z,37.81
2023-05-10T08:54:45.163Z,37.85
2023-05-10T08:55:45.221Z,37.82
2023-05-10T08:56:45.639Z,37.78
2023-05-10T08:57:45.342Z,38.01
2023-05-10T08:58:45.430Z,38.05
2023-05-10T08:59:45.551Z,38.23
2023-05-10T09:00:45.780Z,38.47
2023-05-10T09:01:45.602Z,38.63
2023-05-10T09:02:45.695Z,38.71
2023-05-10T09:03:45.863Z,38.89
2023-05-10T09:04:45.981Z,38.98
2023-05-10T09:05:45.848Z,38.97
2023-05-10T09:06:45.965Z,38.89
2023-05-10T09:07:45.942Z,38.88
2023-05-10T09:08:46.027Z,38.89
2023-05-10T09:09:46.102Z,38.93
2023-05-10T09:10:46.131Z,38.82
2023-05-10T09:11:46.180Z,38.79
2023-05-10T09:12:46.176Z,38.37
2023-05-10T09:13:46.262Z,38.44
2023-05-10T09:14:46.242Z,38.35
2023-05-10T09:15:46.301Z,38.63
2023-05-10T09:16:46.354Z,38.89
2023-05-10T09:17:46.468Z,38.81
2023-05-10T09:18:46.557Z,38.98
2023-05-10T09:19:46.435Z,38.96
2023-05-10T09:20:46.504Z,39.01
2023-05-10T09:21:46.503Z,38.85
2023-05-10T09:22:46.546Z,38.71
2023-05-10T09:23:48.121Z,38.54
2023-05-10T09:24:46.637Z,38.54
2023-05-10T09:25:46.664Z,38.38
2023-05-10T09:26:46.733Z,38.34
2023-05-10T09:27:46.726Z,38.18
2023-05-10T09:28:46.776Z,37.74
2023-05-10T09:29:46.882Z,37.80
2023-05-10T09:30:46.939Z,37.72
2023-05-10T09:31:47.020Z,37.84
2023-05-10T09:32:47.101Z,37.82
2023-05-10T09:33:47.078Z,37.75
2023-05-10T09:34:47.195Z,37.65
2023-05-10T09:35:47.198Z,37.77
2023-05-10T09:36:47.236Z,37.80
2023-05-10T09:37:47.287Z,37.85
2023-05-10T09:38:50.188Z,37.85
2023-05-10T09:39:47.378Z,37.89
2023-05-10T09:40:47.353Z,38.09
2023-05-10T09:41:47.321Z,38.21
2023-05-10T09:42:47.326Z,38.34
2023-05-10T09:43:47.334Z,38.37
2023-05-10T09:44:47.317Z,38.11
2023-05-10T09:45:47.417Z,38.16
2023-05-10T09:46:47.321Z,38.19
2023-05-10T09:47:47.296Z,38.06
2023-05-10T09:48:47.390Z,38.29
2023-05-10T09:49:47.262Z,38.13
2023-05-10T09:50:47.682Z,37.98
2023-05-10T09:51:47.345Z,38.24
2023-05-10T09:52:47.325Z,38.24
2023-05-10T09:53:47.257Z,38.17
2023-05-10T09:54:47.281Z,38.07
2023-05-10T09:55:47.259Z,38.08
2023-05-10T09:56:47.257Z,37.98
2023-05-10T09:57:47.208Z,37.71
2023-05-10T09:58:47.269Z,37.64
2023-05-10T09:59:47.230Z,37.30
2023-05-10T10:00:47.214Z,36.92
2023-05-10T10:01:47.253Z,37.05
2023-05-10T10:02:47.284Z,37.22
2023-05-10T10:03:47.161Z,37.32
2023-05-10T10:04:47.218Z,37.25
2023-05-10T10:05:47.152Z,37.19
2023-05-10T10:06:47.162Z,37.37
2023-05-10T10:07:49.727Z,37.20
2023-05-10T10:08:47.423Z,37.23
2023-05-10T10:09:47.425Z,37.19
2023-05-10T10:10:47.700Z,37.20
2023-05-10T10:11:47.526Z,37.23
2023-05-10T10:12:47.584Z,37.45
2023-05-10T10:13:47.614Z,37.81
2023-05-10T10:14:47.681Z,37.40
2023-05-10T10:15:48.281Z,37.30
2023-05-10T10:17:04.940Z,37.27
2023-05-10T10:17:47.829Z,37.34
2023-05-10T10:18:47.802Z,37.43
2023-05-10T10:19:47.716Z,37.67
2023-05-10T10:20:47.837Z,37.63
2023-05-10T10:21:47.744Z,37.88
2023-05-10T10:22:47.735Z,37.92
2023-05-10T10:23:47.698Z,37.86
2023-05-10T10:24:47.681Z,37.82
2023-05-10T10:25:47.957Z,37.75
2023-05-10T10:26:47.707Z,37.88
2023-05-10T10:27:47.661Z,37.98
2023-05-10T10:28:47.680Z,38.00
2023-05-10T10:29:47.650Z,37.92
2023-05-10T10:30:47.669Z,37.85
2023-05-10T10:31:47.708Z,37.85
2023-05-10T10:32:47.760Z,38.06
2023-05-10T10:33:48.418Z,38.00
2023-05-10T10:34:47.828Z,37.73
2023-05-10T10:35:48.686Z,37.76
2023-05-10T10:36:47.894Z,37.67
2023-05-10T10:37:47.936Z,37.86
2023-05-10T10:38:47.920Z,37.80
2023-05-10T10:39:47.953Z,37.66
2023-05-10T10:40:48.052Z,37.67
2023-05-10T10:41:48.025Z,37.92
2023-05-10T10:42:48.077Z,37.77
2023-05-10T10:43:48.151Z,37.62
2023-05-10T10:44:48.157Z,37.63
2023-05-10T10:45:48.157Z,38.07
2023-05-10T10:46:48.303Z,37.94
2023-05-10T10:47:48.205Z,38.11
2023-05-10T10:48:48.217Z,38.11
2023-05-10T10:49:48.273Z,38.04
2023-05-10T10:50:48.305Z,37.76
2023-05-10T10:51:48.373Z,38.20
2023-05-10T10:52:48.395Z,37.91
2023-05-10T10:53:48.391Z,37.89
2023-05-10T10:54:48.484Z,37.65
2023-05-10T10:55:48.462Z,37.70
2023-05-10T10:56:48.515Z,37.63
2023-05-10T10:57:48.540Z,37.79
2023-05-10T10:58:48.577Z,37.74
2023-05-10T10:59:48.652Z,37.65
2023-05-10T11:00:48.745Z,37.65
2023-05-10T11:01:48.689Z,37.60
2023-05-10T11:02:48.818Z,37.86
2023-05-10T11:03:48.819Z,37.95
2023-05-10T11:04:48.785Z,37.97
2023-05-10T11:05:48.779Z,37.92
2023-05-10T11:06:48.807Z,37.97
2023-05-10T11:07:48.814Z,38.16
2023-05-10T11:08:48.853Z,38.28
2023-05-10T11:09:48.877Z,38.17
2023-05-10T11:10:49.006Z,38.16
2023-05-10T11:11:48.985Z,38.16
2023-05-10T11:12:48.982Z,38.27
2023-05-10T11:13:50.973Z,38.37
2023-05-10T11:14:49.129Z,38.43
2023-05-10T11:15:49.186Z,38.60
2023-05-10T11:16:49.137Z,38.67
2023-05-10T11:17:49.277Z,38.47
2023-05-10T11:18:50.354Z,38.48
2023-05-10T11:19:49.273Z,38.40
2023-05-10T11:20:49.255Z,38.36
2023-05-10T11:21:49.304Z,38.30
2023-05-10T11:22:49.315Z,38.19
2023-05-10T11:23:49.248Z,38.41
2023-05-10T11:24:50.201Z,38.24
2023-05-10T11:25:49.348Z,38.15
2023-05-10T11:26:49.324Z,38.19
2023-05-10T11:27:49.476Z,38.13
2023-05-10T11:28:49.378Z,38.26
2023-05-10T11:29:49.431Z,38.22
2023-05-10T11:30:49.432Z,38.19
2023-05-10T11:31:49.519Z,38.24
2023-05-10T11:32:49.494Z,38.24
2023-05-10T11:33:49.465Z,38.20
2023-05-10T11:34:49.500Z,38.24
2023-05-10T11:35:49.538Z,38.24
2023-05-10T11:36:49.537Z,38.20
2023-05-10T11:37:49.549Z,38.23
2023-05-10T11:38:49.629Z,38.25
2023-05-10T11:39:49.605Z,38.30
2023-05-10T11:40:49.652Z,38.22
2023-05-10T11:41:49.655Z,38.26
2023-05-10T11:42:49.710Z,38.22
2023-05-10T11:43:49.696Z,38.26
2023-05-10T11:44:49.736Z,38.30
2023-05-10T11:45:49.846Z,38.28
2023-05-10T11:46:49.912Z,38.28
2023-05-10T11:47:49.855Z,38.31
2023-05-10T11:48:49.851Z,38.24
2023-05-10T11:49:50.737Z,38.27
2023-05-10T11:50:49.892Z,38.28
2023-05-10T11:51:49.958Z,38.29
2023-05-10T11:52:49.993Z,38.29
2023-05-10T11:53:50.046Z,38.29
2023-05-10T11:54:50.018Z,38.32
2023-05-10T11:55:50.108Z,38.28
2023-05-10T11:56:50.096Z,38.34
2023-05-10T11:57:50.160Z,38.33
2023-05-10T11:58:50.138Z,38.30
2023-05-10T11:59:50.208Z,38.29
2023-05-10T12:00:50.234Z,38.30
2023-05-10T12:01:50.254Z,38.29
2023-05-10T12:02:50.386Z,38.33
2023-05-10T12:03:50.469Z,38.29
2023-05-10T12:04:50.375Z,38.31
2023-05-10T12:05:50.403Z,38.28
2023-05-10T12:06:50.443Z,38.31
2023-05-10T12:07:50.476Z,38.32
2023-05-10T12:08:50.522Z,38.25
2023-05-10T12:09:50.553Z,38.27
2023-05-10T12:10:50.620Z,38.29
2023-05-10T12:11:50.693Z,38.29
2023-05-10T12:12:50.674Z,38.29
2023-05-10T12:13:50.732Z,38.27
2023-05-10T12:14:50.741Z,38.27
2023-05-10T12:15:50.786Z,38.27
2023-05-10T12:16:50.863Z,38.24
2023-05-10T12:17:50.945Z,38.25
2023-05-10T12:18:50.923Z,38.28
2023-05-10T12:19:50.942Z,38.25
2023-05-10T12:20:51.014Z,38.28
2023-05-10T12:21:51.125Z,38.26
2023-05-10T12:22:51.077Z,38.25
2023-05-10T12:23:51.122Z,38.25
2023-05-10T12:24:51.165Z,38.22
2023-05-10T12:25:51.214Z,38.21
2023-05-10T12:26:51.276Z,38.24
2023-05-10T12:27:51.299Z,38.22
2023-05-10T12:28:51.365Z,38.23
2023-05-10T12:29:51.439Z,38.26
2023-05-10T12:30:51.462Z,38.26
2023-05-10T12:31:51.573Z,38.23
2023-05-10T12:32:51.624Z,38.17
2023-05-10T12:33:51.606Z,38.18
2023-05-10T12:34:51.666Z,38.19
2023-05-10T12:35:51.684Z,38.19
2023-05-10T12:36:51.746Z,38.18
2023-05-10T12:37:51.791Z,38.15
2023-05-10T12:38:51.915Z,38.15
2023-05-10T12:39:51.864Z,38.17
2023-05-10T12:40:51.960Z,38.11
2023-05-10T12:41:51.972Z,38.13
2023-05-10T12:42:52.033Z,38.14
2023-05-10T12:43:52.124Z,38.11
2023-05-10T12:44:52.130Z,38.15
2023-05-10T12:45:52.289Z,38.14
2023-05-10T12:46:52.207Z,38.13
2023-05-10T12:47:52.240Z,38.09
2023-05-10T12:48:57.565Z,38.09
2023-05-10T12:49:53.286Z,38.12
2023-05-10T12:50:52.327Z,38.11
2023-05-10T12:51:52.300Z,38.07
2023-05-10T12:52:52.325Z,38.08
2023-05-10T12:53:52.248Z,38.03
2023-05-10T12:54:52.254Z,38.07
2023-05-10T12:55:52.235Z,38.02
2023-05-10T12:56:52.227Z,38.07
2023-05-10T12:57:52.216Z,38.03
2023-05-10T12:58:52.232Z,38.06
2023-05-10T12:59:52.233Z,38.03
2023-05-10T13:00:52.261Z,38.01
2023-05-10T13:01:52.749Z,37.99
2023-05-10T13:02:52.386Z,37.99
2023-05-10T13:03:52.393Z,38.01
2023-05-10T13:04:52.503Z,37.95
2023-05-10T13:05:52.468Z,37.99
2023-05-10T13:06:52.576Z,37.94
2023-05-10T13:07:52.552Z,37.92